sensor_id;sensor_type;location;lat;lon;timestamp;P1;durP1;ratioP1;P2;durP2;ratioP2
7156;SDS011;3620;49.862;8.758;2022-10-23T00:01:33;0.90;;;0.90;;
7156;SDS011;3620;49.862;8.758;2022-10-23T00:04:02;0.90;;;0.90;;
7156;SDS011;3620;49.862;8.758;2022-10-23T00:06:32;0.90;;;0.90;;
7156;SDS011;3620;49.862;8.758;2022-10-23T00:09:01;1.00;;;1.00;;
7156;SDS011;3620;49.862;8.758;2022-10-23T00:11:29;1.00;;;1.00;;
7156;SDS011;3620;49.862;8.758;2022-10-23T00:13:57;0.90;;;0.90;;
7156;SDS011;3620;49.862;8.758;2022-10-23T00:16:26;0.90;;;0.90;;
7156;SDS011;3620;49.862;8.758;2022-10-23T00:18:54;0.90;;;0.90;;
7156;SDS011;3620;49.862;8.758;2022-10-23T00:21:21;0.90;;;0.90;;
7156;SDS011;3620;49.862;8.758;2022-10-23T00:23:50;0.90;;;0.90;;
7156;SDS011;3620;49.862;8.758;2022-10-23T00:26:16;0.90;;;0.90;;
7156;SDS011;3620;49.862;8.758;2022-10-23T00:28:44;0.90;;;0.90;;
7156;SDS011;3620;49.862;8.758;2022-10-23T00:31:12;1.00;;;1.00;;
7156;SDS011;3620;49.862;8.758;2022-10-23T00:33:39;1.00;;;1.00;;
7156;SDS011;3620;49.862;8.758;2022-10-23T00:36:07;0.90;;;0.90;;
7156;SDS011;3620;49.862;8.758;2022-10-23T00:38:35;0.80;;;0.80;;
7156;SDS011;3620;49.862;8.758;2022-10-23T00:41:04;0.80;;;0.80;;
7156;SDS011;3620;49.862;8.758;2022-10-23T00:43:32;1.00;;;1.00;;
7156;SDS011;3620;49.862;8.758;2022-10-23T00:46:00;1.00;;;1.00;;
7156;SDS011;3620;49.862;8.758;2022-10-23T00:48:27;0.80;;;0.80;;
7156;SDS011;3620;49.862;8.758;2022-10-23T00:50:54;0.90;;;0.90;;
7156;SDS011;3620;49.862;8.758;2022-10-23T00:53:21;0.90;;;0.90;;
7156;SDS011;3620;49.862;8.758;2022-10-23T00:55:49;1.00;;;1.00;;
7156;SDS011;3620;49.862;8.758;2022-10-23T00:58:20;0.90;;;0.90;;
7156;SDS011;3620;49.862;8.758;2022-10-23T01:00:47;1.00;;;1.00;;
7156;SDS011;3620;49.862;8.758;2022-10-23T01:03:16;0.93;;;0.93;;
7156;SDS011;3620;49.862;8.758;2022-10-23T01:05:48;1.00;;;1.00;;
7156;SDS011;3620;49.862;8.758;2022-10-23T01:08:20;0.90;;;0.90;;
7156;SDS011;3620;49.862;8.758;2022-10-23T01:10:55;1.00;;;1.00;;
7156;SDS011;3620;49.862;8.758;2022-10-23T01:13:32;0.80;;;0.80;;
7156;SDS011;3620;49.862;8.758;2022-10-23T01:16:04;0.90;;;0.90;;
7156;SDS011;3620;49.862;8.758;2022-10-23T01:18:38;0.90;;;0.90;;
7156;SDS011;3620;49.862;8.758;2022-10-23T01:21:11;0.80;;;0.80;;
7156;SDS011;3620;49.862;8.758;2022-10-23T01:23:44;0.90;;;0.90;;
7156;SDS011;3620;49.862;8.758;2022-10-23T01:26:25;0.90;;;0.90;;
7156;SDS011;3620;49.862;8.758;2022-10-23T01:29:02;0.90;;;0.90;;
7156;SDS011;3620;49.862;8.758;2022-10-23T01:31:35;0.90;;;0.90;;
7156;SDS011;3620;49.862;8.758;2022-10-23T01:34:06;1.00;;;1.00;;
7156;SDS011;3620;49.862;8.758;2022-10-23T01:36:38;1.00;;;1.00;;
7156;SDS011;3620;49.862;8.758;2022-10-23T01:39:09;1.00;;;1.00;;
7156;SDS011;3620;49.862;8.758;2022-10-23T01:41:41;0.87;;;0.87;;
7156;SDS011;3620;49.862;8.758;2022-10-23T01:44:13;1.00;;;1.00;;
7156;SDS011;3620;49.862;8.758;2022-10-23T01:46:44;1.00;;;1.00;;
7156;SDS011;3620;49.862;8.758;2022-10-23T01:49:14;0.90;;;0.90;;
7156;SDS011;3620;49.862;8.758;2022-10-23T01:51:43;1.00;;;1.00;;
7156;SDS011;3620;49.862;8.758;2022-10-23T01:54:12;0.90;;;0.90;;
7156;SDS011;3620;49.862;8.758;2022-10-23T01:56:41;1.00;;;1.00;;
7156;SDS011;3620;49.862;8.758;2022-10-23T01:59:13;0.90;;;0.90;;
7156;SDS011;3620;49.862;8.758;2022-10-23T02:01:46;1.00;;;1.00;;
7156;SDS011;3620;49.862;8.758;2022-10-23T02:04:16;0.90;;;0.90;;
7156;SDS011;3620;49.862;8.758;2022-10-23T02:06:46;1.00;;;1.00;;
7156;SDS011;3620;49.862;8.758;2022-10-23T02:09:13;0.80;;;0.80;;
7156;SDS011;3620;49.862;8.758;2022-10-23T02:11:42;0.80;;;0.80;;
7156;SDS011;3620;49.862;8.758;2022-10-23T02:14:17;1.00;;;1.00;;
7156;SDS011;3620;49.862;8.758;2022-10-23T02:16:51;1.00;;;1.00;;
7156;SDS011;3620;49.862;8.758;2022-10-23T02:19:22;1.00;;;1.00;;
7156;SDS011;3620;49.862;8.758;2022-10-23T02:21:54;0.90;;;0.90;;
7156;SDS011;3620;49.862;8.758;2022-10-23T02:24:30;0.90;;;0.90;;
7156;SDS011;3620;49.862;8.758;2022-10-23T02:27:01;0.97;;;0.97;;
7156;SDS011;3620;49.862;8.758;2022-10-23T02:29:34;0.90;;;0.90;;
7156;SDS011;3620;49.862;8.758;2022-10-23T02:32:04;1.00;;;1.00;;
7156;SDS011;3620;49.862;8.758;2022-10-23T02:34:32;0.90;;;0.90;;
7156;SDS011;3620;49.862;8.758;2022-10-23T02:36:59;0.90;;;0.90;;
7156;SDS011;3620;49.862;8.758;2022-10-23T02:39:26;0.90;;;0.90;;
7156;SDS011;3620;49.862;8.758;2022-10-23T02:41:54;0.90;;;0.90;;
7156;SDS011;3620;49.862;8.758;2022-10-23T02:44:28;1.00;;;1.00;;
7156;SDS011;3620;49.862;8.758;2022-10-23T02:47:09;0.90;;;0.90;;
7156;SDS011;3620;49.862;8.758;2022-10-23T02:49:48;0.90;;;0.90;;
7156;SDS011;3620;49.862;8.758;2022-10-23T02:52:22;0.90;;;0.90;;
7156;SDS011;3620;49.862;8.758;2022-10-23T02:55:02;1.00;;;1.00;;
7156;SDS011;3620;49.862;8.758;2022-10-23T02:57:37;0.90;;;0.90;;
7156;SDS011;3620;49.862;8.758;2022-10-23T03:00:11;1.00;;;1.00;;
7156;SDS011;3620;49.862;8.758;2022-10-23T03:02:42;0.90;;;0.90;;
7156;SDS011;3620;49.862;8.758;2022-10-23T03:05:11;0.90;;;0.90;;
7156;SDS011;3620;49.862;8.758;2022-10-23T03:07:43;1.00;;;1.00;;
7156;SDS011;3620;49.862;8.758;2022-10-23T03:10:12;0.80;;;0.80;;
7156;SDS011;3620;49.862;8.758;2022-10-23T03:12:38;0.90;;;0.90;;
7156;SDS011;3620;49.862;8.758;2022-10-23T03:15:06;0.87;;;0.87;;
7156;SDS011;3620;49.862;8.758;2022-10-23T03:17:35;0.80;;;0.80;;
7156;SDS011;3620;49.862;8.758;2022-10-23T03:20:02;0.80;;;0.80;;
7156;SDS011;3620;49.862;8.758;2022-10-23T03:22:29;0.90;;;0.90;;
7156;SDS011;3620;49.862;8.758;2022-10-23T03:24:55;0.90;;;0.90;;
7156;SDS011;3620;49.862;8.758;2022-10-23T03:27:22;0.90;;;0.90;;
7156;SDS011;3620;49.862;8.758;2022-10-23T03:29:49;0.90;;;0.90;;
7156;SDS011;3620;49.862;8.758;2022-10-23T03:32:16;0.90;;;0.90;;
7156;SDS011;3620;49.862;8.758;2022-10-23T03:34:44;0.90;;;0.90;;
7156;SDS011;3620;49.862;8.758;2022-10-23T03:37:10;0.83;;;0.83;;
7156;SDS011;3620;49.862;8.758;2022-10-23T03:39:37;0.80;;;0.80;;
7156;SDS011;3620;49.862;8.758;2022-10-23T03:42:04;0.90;;;0.90;;
7156;SDS011;3620;49.862;8.758;2022-10-23T03:44:31;1.00;;;1.00;;
7156;SDS011;3620;49.862;8.758;2022-10-23T03:46:58;0.90;;;0.90;;
7156;SDS011;3620;49.862;8.758;2022-10-23T03:49:25;0.90;;;0.90;;
7156;SDS011;3620;49.862;8.758;2022-10-23T03:51:53;0.97;;;0.97;;
7156;SDS011;3620;49.862;8.758;2022-10-23T03:54:20;0.90;;;0.90;;
7156;SDS011;3620;49.862;8.758;2022-10-23T03:56:48;0.90;;;0.90;;
7156;SDS011;3620;49.862;8.758;2022-10-23T03:59:15;0.90;;;0.90;;
7156;SDS011;3620;49.862;8.758;2022-10-23T04:01:42;0.90;;;0.90;;
7156;SDS011;3620;49.862;8.758;2022-10-23T04:04:08;1.00;;;1.00;;
7156;SDS011;3620;49.862;8.758;2022-10-23T04:06:35;1.00;;;1.00;;
7156;SDS011;3620;49.862;8.758;2022-10-23T04:09:04;1.00;;;1.00;;
7156;SDS011;3620;49.862;8.758;2022-10-23T04:11:31;0.90;;;0.90;;
7156;SDS011;3620;49.862;8.758;2022-10-23T04:13:58;1.00;;;1.00;;
7156;SDS011;3620;49.862;8.758;2022-10-23T04:16:25;1.00;;;1.00;;
7156;SDS011;3620;49.862;8.758;2022-10-23T04:18:51;0.90;;;0.90;;
7156;SDS011;3620;49.862;8.758;2022-10-23T04:21:18;0.90;;;0.90;;
7156;SDS011;3620;49.862;8.758;2022-10-23T04:23:45;1.00;;;1.00;;
7156;SDS011;3620;49.862;8.758;2022-10-23T04:26:13;0.80;;;0.80;;
7156;SDS011;3620;49.862;8.758;2022-10-23T04:28:40;1.00;;;1.00;;
7156;SDS011;3620;49.862;8.758;2022-10-23T04:31:07;0.93;;;0.93;;
7156;SDS011;3620;49.862;8.758;2022-10-23T04:33:33;0.90;;;0.90;;
7156;SDS011;3620;49.862;8.758;2022-10-23T04:36:00;0.87;;;0.87;;
7156;SDS011;3620;49.862;8.758;2022-10-23T04:38:27;0.90;;;0.90;;
7156;SDS011;3620;49.862;8.758;2022-10-23T04:40:53;0.93;;;0.93;;
7156;SDS011;3620;49.862;8.758;2022-10-23T04:43:21;0.93;;;0.93;;
7156;SDS011;3620;49.862;8.758;2022-10-23T04:45:48;1.00;;;1.00;;
7156;SDS011;3620;49.862;8.758;2022-10-23T04:48:15;0.80;;;0.80;;
7156;SDS011;3620;49.862;8.758;2022-10-23T04:50:42;1.00;;;1.00;;
7156;SDS011;3620;49.862;8.758;2022-10-23T04:53:08;0.93;;;0.93;;
7156;SDS011;3620;49.862;8.758;2022-10-23T04:55:35;0.90;;;0.90;;
7156;SDS011;3620;49.862;8.758;2022-10-23T04:58:02;1.00;;;1.00;;
7156;SDS011;3620;49.862;8.758;2022-10-23T05:00:30;1.00;;;1.00;;
7156;SDS011;3620;49.862;8.758;2022-10-23T05:02:56;1.00;;;1.00;;
7156;SDS011;3620;49.862;8.758;2022-10-23T05:05:23;0.90;;;0.90;;
7156;SDS011;3620;49.862;8.758;2022-10-23T05:07:50;1.00;;;1.00;;
7156;SDS011;3620;49.862;8.758;2022-10-23T05:10:16;0.80;;;0.80;;
7156;SDS011;3620;49.862;8.758;2022-10-23T05:12:43;1.00;;;1.00;;
7156;SDS011;3620;49.862;8.758;2022-10-23T05:15:10;1.00;;;1.00;;
7156;SDS011;3620;49.862;8.758;2022-10-23T05:17:38;0.97;;;0.97;;
7156;SDS011;3620;49.862;8.758;2022-10-23T05:20:09;0.90;;;0.90;;
7156;SDS011;3620;49.862;8.758;2022-10-23T05:22:42;0.90;;;0.90;;
7156;SDS011;3620;49.862;8.758;2022-10-23T05:25:11;1.00;;;1.00;;
7156;SDS011;3620;49.862;8.758;2022-10-23T05:27:38;0.90;;;0.90;;
7156;SDS011;3620;49.862;8.758;2022-10-23T05:30:05;1.00;;;1.00;;
7156;SDS011;3620;49.862;8.758;2022-10-23T05:32:33;0.90;;;0.90;;
7156;SDS011;3620;49.862;8.758;2022-10-23T05:35:02;1.00;;;1.00;;
7156;SDS011;3620;49.862;8.758;2022-10-23T05:37:33;1.00;;;1.00;;
7156;SDS011;3620;49.862;8.758;2022-10-23T05:40:02;0.90;;;0.90;;
7156;SDS011;3620;49.862;8.758;2022-10-23T05:42:30;0.90;;;0.90;;
7156;SDS011;3620;49.862;8.758;2022-10-23T05:44:56;0.70;;;0.70;;
7156;SDS011;3620;49.862;8.758;2022-10-23T05:47:23;0.90;;;0.90;;
7156;SDS011;3620;49.862;8.758;2022-10-23T05:49:50;1.00;;;1.00;;
7156;SDS011;3620;49.862;8.758;2022-10-23T05:52:18;1.00;;;1.00;;
7156;SDS011;3620;49.862;8.758;2022-10-23T05:54:45;1.00;;;1.00;;
7156;SDS011;3620;49.862;8.758;2022-10-23T05:57:11;0.90;;;0.90;;
7156;SDS011;3620;49.862;8.758;2022-10-23T05:59:38;0.90;;;0.90;;
7156;SDS011;3620;49.862;8.758;2022-10-23T06:02:05;1.00;;;1.00;;
7156;SDS011;3620;49.862;8.758;2022-10-23T06:04:32;0.90;;;0.90;;
7156;SDS011;3620;49.862;8.758;2022-10-23T06:06:59;1.00;;;1.00;;
7156;SDS011;3620;49.862;8.758;2022-10-23T06:09:27;0.93;;;0.93;;
7156;SDS011;3620;49.862;8.758;2022-10-23T06:11:54;0.90;;;0.90;;
7156;SDS011;3620;49.862;8.758;2022-10-23T06:14:21;0.90;;;0.90;;
7156;SDS011;3620;49.862;8.758;2022-10-23T06:16:47;0.90;;;0.90;;
7156;SDS011;3620;49.862;8.758;2022-10-23T06:19:14;1.00;;;1.00;;
7156;SDS011;3620;49.862;8.758;2022-10-23T06:21:41;0.90;;;0.90;;
7156;SDS011;3620;49.862;8.758;2022-10-23T06:24:08;1.00;;;1.00;;
7156;SDS011;3620;49.862;8.758;2022-10-23T06:26:36;0.90;;;0.90;;
7156;SDS011;3620;49.862;8.758;2022-10-23T06:29:03;0.90;;;0.90;;
7156;SDS011;3620;49.862;8.758;2022-10-23T06:31:29;1.00;;;1.00;;
7156;SDS011;3620;49.862;8.758;2022-10-23T06:33:56;0.80;;;0.80;;
7156;SDS011;3620;49.862;8.758;2022-10-23T06:36:24;0.97;;;0.97;;
7156;SDS011;3620;49.862;8.758;2022-10-23T06:38:51;0.90;;;0.90;;
7156;SDS011;3620;49.862;8.758;2022-10-23T06:41:19;1.00;;;1.00;;
7156;SDS011;3620;49.862;8.758;2022-10-23T06:43:48;0.90;;;0.90;;
7156;SDS011;3620;49.862;8.758;2022-10-23T06:46:16;1.00;;;1.00;;
7156;SDS011;3620;49.862;8.758;2022-10-23T06:48:43;0.90;;;0.90;;
7156;SDS011;3620;49.862;8.758;2022-10-23T06:51:10;1.00;;;1.00;;
7156;SDS011;3620;49.862;8.758;2022-10-23T06:53:39;0.90;;;0.90;;
7156;SDS011;3620;49.862;8.758;2022-10-23T06:56:06;1.00;;;1.00;;
7156;SDS011;3620;49.862;8.758;2022-10-23T06:58:33;1.00;;;1.00;;
7156;SDS011;3620;49.862;8.758;2022-10-23T07:01:04;0.93;;;0.93;;
7156;SDS011;3620;49.862;8.758;2022-10-23T07:03:31;1.00;;;1.00;;
7156;SDS011;3620;49.862;8.758;2022-10-23T07:05:59;1.00;;;1.00;;
7156;SDS011;3620;49.862;8.758;2022-10-23T07:08:26;0.90;;;0.90;;
7156;SDS011;3620;49.862;8.758;2022-10-23T07:10:53;1.00;;;1.00;;
7156;SDS011;3620;49.862;8.758;2022-10-23T07:13:21;1.00;;;1.00;;
7156;SDS011;3620;49.862;8.758;2022-10-23T07:15:49;0.90;;;0.90;;
7156;SDS011;3620;49.862;8.758;2022-10-23T07:18:17;0.80;;;0.80;;
7156;SDS011;3620;49.862;8.758;2022-10-23T07:20:43;0.90;;;0.90;;
7156;SDS011;3620;49.862;8.758;2022-10-23T07:23:13;1.00;;;1.00;;
7156;SDS011;3620;49.862;8.758;2022-10-23T07:25:41;0.90;;;0.90;;
7156;SDS011;3620;49.862;8.758;2022-10-23T07:28:08;0.90;;;0.90;;
7156;SDS011;3620;49.862;8.758;2022-10-23T07:30:34;1.00;;;1.00;;
7156;SDS011;3620;49.862;8.758;2022-10-23T07:33:01;0.90;;;0.90;;
7156;SDS011;3620;49.862;8.758;2022-10-23T07:35:29;1.00;;;1.00;;
7156;SDS011;3620;49.862;8.758;2022-10-23T07:37:57;0.97;;;0.97;;
7156;SDS011;3620;49.862;8.758;2022-10-23T07:40:24;0.90;;;0.90;;
7156;SDS011;3620;49.862;8.758;2022-10-23T07:42:51;0.90;;;0.90;;
7156;SDS011;3620;49.862;8.758;2022-10-23T07:45:18;0.80;;;0.80;;
7156;SDS011;3620;49.862;8.758;2022-10-23T07:47:48;0.80;;;0.80;;
7156;SDS011;3620;49.862;8.758;2022-10-23T07:50:16;0.83;;;0.83;;
7156;SDS011;3620;49.862;8.758;2022-10-23T07:52:44;0.80;;;0.80;;
7156;SDS011;3620;49.862;8.758;2022-10-23T07:55:11;0.80;;;0.80;;
7156;SDS011;3620;49.862;8.758;2022-10-23T07:57:37;0.90;;;0.90;;
7156;SDS011;3620;49.862;8.758;2022-10-23T08:00:04;0.90;;;0.90;;
7156;SDS011;3620;49.862;8.758;2022-10-23T08:02:32;0.83;;;0.83;;
7156;SDS011;3620;49.862;8.758;2022-10-23T08:04:59;1.00;;;1.00;;
7156;SDS011;3620;49.862;8.758;2022-10-23T08:07:25;1.00;;;1.00;;
7156;SDS011;3620;49.862;8.758;2022-10-23T08:09:53;1.00;;;1.00;;
7156;SDS011;3620;49.862;8.758;2022-10-23T08:12:20;0.80;;;0.80;;
7156;SDS011;3620;49.862;8.758;2022-10-23T08:14:47;0.90;;;0.90;;
7156;SDS011;3620;49.862;8.758;2022-10-23T08:17:13;0.90;;;0.90;;
7156;SDS011;3620;49.862;8.758;2022-10-23T08:19:40;0.90;;;0.90;;
7156;SDS011;3620;49.862;8.758;2022-10-23T08:22:10;0.90;;;0.90;;
7156;SDS011;3620;49.862;8.758;2022-10-23T08:24:37;0.90;;;0.90;;
7156;SDS011;3620;49.862;8.758;2022-10-23T08:27:05;0.90;;;0.90;;
7156;SDS011;3620;49.862;8.758;2022-10-23T08:29:31;0.80;;;0.80;;
7156;SDS011;3620;49.862;8.758;2022-10-23T08:31:58;0.80;;;0.80;;
7156;SDS011;3620;49.862;8.758;2022-10-23T08:34:25;0.80;;;0.80;;
7156;SDS011;3620;49.862;8.758;2022-10-23T08:36:52;1.00;;;1.00;;
7156;SDS011;3620;49.862;8.758;2022-10-23T08:39:19;0.90;;;0.90;;
7156;SDS011;3620;49.862;8.758;2022-10-23T08:41:47;0.90;;;0.90;;
7156;SDS011;3620;49.862;8.758;2022-10-23T08:44:19;0.90;;;0.90;;
7156;SDS011;3620;49.862;8.758;2022-10-23T08:46:51;0.90;;;0.90;;
7156;SDS011;3620;49.862;8.758;2022-10-23T08:49:29;0.90;;;0.90;;
7156;SDS011;3620;49.862;8.758;2022-10-23T08:52:09;0.90;;;0.90;;
7156;SDS011;3620;49.862;8.758;2022-10-23T08:54:46;0.90;;;0.90;;
7156;SDS011;3620;49.862;8.758;2022-10-23T08:57:22;0.90;;;0.90;;
7156;SDS011;3620;49.862;8.758;2022-10-23T08:59:58;0.90;;;0.90;;
7156;SDS011;3620;49.862;8.758;2022-10-23T09:02:26;0.80;;;0.80;;
7156;SDS011;3620;49.862;8.758;2022-10-23T09:04:58;0.90;;;0.90;;
7156;SDS011;3620;49.862;8.758;2022-10-23T09:07:28;0.87;;;0.87;;
7156;SDS011;3620;49.862;8.758;2022-10-23T09:10:12;0.80;;;0.80;;
7156;SDS011;3620;49.862;8.758;2022-10-23T09:12:50;0.80;;;0.80;;
7156;SDS011;3620;49.862;8.758;2022-10-23T09:15:21;0.90;;;0.90;;
7156;SDS011;3620;49.862;8.758;2022-10-23T09:17:54;0.80;;;0.80;;
7156;SDS011;3620;49.862;8.758;2022-10-23T09:20:26;0.90;;;0.90;;
7156;SDS011;3620;49.862;8.758;2022-10-23T09:22:56;0.80;;;0.80;;
7156;SDS011;3620;49.862;8.758;2022-10-23T09:25:25;0.90;;;0.90;;
7156;SDS011;3620;49.862;8.758;2022-10-23T09:27:53;0.80;;;0.80;;
7156;SDS011;3620;49.862;8.758;2022-10-23T09:30:30;0.90;;;0.90;;
7156;SDS011;3620;49.862;8.758;2022-10-23T09:32:58;0.90;;;0.90;;
7156;SDS011;3620;49.862;8.758;2022-10-23T09:35:26;0.80;;;0.80;;
7156;SDS011;3620;49.862;8.758;2022-10-23T09:37:54;0.80;;;0.80;;
7156;SDS011;3620;49.862;8.758;2022-10-23T09:40:24;0.80;;;0.80;;
7156;SDS011;3620;49.862;8.758;2022-10-23T09:42:56;0.80;;;0.80;;
7156;SDS011;3620;49.862;8.758;2022-10-23T09:45:25;0.80;;;0.80;;
7156;SDS011;3620;49.862;8.758;2022-10-23T09:48:02;0.70;;;0.70;;
7156;SDS011;3620;49.862;8.758;2022-10-23T09:50:30;0.80;;;0.80;;
7156;SDS011;3620;49.862;8.758;2022-10-23T09:52:57;0.80;;;0.80;;
7156;SDS011;3620;49.862;8.758;2022-10-23T09:55:24;0.70;;;0.70;;
7156;SDS011;3620;49.862;8.758;2022-10-23T09:57:52;0.90;;;0.90;;
7156;SDS011;3620;49.862;8.758;2022-10-23T10:00:20;0.90;;;0.90;;
7156;SDS011;3620;49.862;8.758;2022-10-23T10:02:57;0.90;;;0.90;;
7156;SDS011;3620;49.862;8.758;2022-10-23T10:05:29;0.80;;;0.80;;
7156;SDS011;3620;49.862;8.758;2022-10-23T10:07:58;0.90;;;0.90;;
7156;SDS011;3620;49.862;8.758;2022-10-23T10:10:33;0.80;;;0.80;;
7156;SDS011;3620;49.862;8.758;2022-10-23T10:13:04;0.80;;;0.80;;
7156;SDS011;3620;49.862;8.758;2022-10-23T10:15:42;0.90;;;0.90;;
7156;SDS011;3620;49.862;8.758;2022-10-23T10:18:19;0.80;;;0.80;;
7156;SDS011;3620;49.862;8.758;2022-10-23T10:20:54;0.80;;;0.80;;
7156;SDS011;3620;49.862;8.758;2022-10-23T10:23:34;0.87;;;0.87;;
7156;SDS011;3620;49.862;8.758;2022-10-23T10:26:13;0.80;;;0.80;;
7156;SDS011;3620;49.862;8.758;2022-10-23T10:28:58;0.90;;;0.90;;
7156;SDS011;3620;49.862;8.758;2022-10-23T10:31:32;0.80;;;0.80;;
7156;SDS011;3620;49.862;8.758;2022-10-23T10:34:11;0.80;;;0.80;;
7156;SDS011;3620;49.862;8.758;2022-10-23T10:36:46;0.80;;;0.80;;
7156;SDS011;3620;49.862;8.758;2022-10-23T10:39:19;0.77;;;0.77;;
7156;SDS011;3620;49.862;8.758;2022-10-23T10:41:59;0.80;;;0.80;;
7156;SDS011;3620;49.862;8.758;2022-10-23T10:44:40;0.80;;;0.80;;
7156;SDS011;3620;49.862;8.758;2022-10-23T10:47:20;0.80;;;0.80;;
7156;SDS011;3620;49.862;8.758;2022-10-23T10:49:58;0.80;;;0.80;;
7156;SDS011;3620;49.862;8.758;2022-10-23T10:52:38;0.80;;;0.80;;
7156;SDS011;3620;49.862;8.758;2022-10-23T10:55:12;0.80;;;0.80;;
7156;SDS011;3620;49.862;8.758;2022-10-23T10:57:43;0.80;;;0.80;;
7156;SDS011;3620;49.862;8.758;2022-10-23T11:00:13;0.80;;;0.80;;
7156;SDS011;3620;49.862;8.758;2022-10-23T11:02:42;0.80;;;0.80;;
7156;SDS011;3620;49.862;8.758;2022-10-23T11:05:15;0.80;;;0.80;;
7156;SDS011;3620;49.862;8.758;2022-10-23T11:07:51;0.80;;;0.80;;
7156;SDS011;3620;49.862;8.758;2022-10-23T11:10:20;0.80;;;0.80;;
7156;SDS011;3620;49.862;8.758;2022-10-23T11:12:47;0.80;;;0.80;;
7156;SDS011;3620;49.862;8.758;2022-10-23T11:15:18;0.80;;;0.80;;
7156;SDS011;3620;49.862;8.758;2022-10-23T11:17:49;0.77;;;0.77;;
7156;SDS011;3620;49.862;8.758;2022-10-23T11:23:16;0.60;;;0.60;;
7156;SDS011;3620;49.862;8.758;2022-10-23T11:26:00;0.87;;;0.87;;
7156;SDS011;3620;49.862;8.758;2022-10-23T11:28:46;0.80;;;0.80;;
7156;SDS011;3620;49.862;8.758;2022-10-23T11:31:25;0.80;;;0.80;;
7156;SDS011;3620;49.862;8.758;2022-10-23T11:36:56;0.80;;;0.80;;
7156;SDS011;3620;49.862;8.758;2022-10-23T11:39:26;0.80;;;0.80;;
7156;SDS011;3620;49.862;8.758;2022-10-23T11:41:55;0.80;;;0.80;;
7156;SDS011;3620;49.862;8.758;2022-10-23T11:44:24;0.80;;;0.80;;
7156;SDS011;3620;49.862;8.758;2022-10-23T11:50:15;0.80;;;0.80;;
7156;SDS011;3620;49.862;8.758;2022-10-23T11:52:53;0.80;;;0.80;;
7156;SDS011;3620;49.862;8.758;2022-10-23T11:55:25;0.80;;;0.80;;
7156;SDS011;3620;49.862;8.758;2022-10-23T12:00:57;0.73;;;0.73;;
7156;SDS011;3620;49.862;8.758;2022-10-23T12:03:29;0.70;;;0.70;;
7156;SDS011;3620;49.862;8.758;2022-10-23T12:06:03;0.73;;;0.73;;
7156;SDS011;3620;49.862;8.758;2022-10-23T12:08:33;0.70;;;0.70;;
7156;SDS011;3620;49.862;8.758;2022-10-23T12:11:25;0.80;;;0.80;;
7156;SDS011;3620;49.862;8.758;2022-10-23T12:13:53;0.70;;;0.70;;
7156;SDS011;3620;49.862;8.758;2022-10-23T12:16:20;0.80;;;0.80;;
7156;SDS011;3620;49.862;8.758;2022-10-23T12:18:48;0.70;;;0.70;;
7156;SDS011;3620;49.862;8.758;2022-10-23T12:21:20;0.60;;;0.60;;
7156;SDS011;3620;49.862;8.758;2022-10-23T12:26:50;0.83;;;0.83;;
7156;SDS011;3620;49.862;8.758;2022-10-23T12:29:31;0.80;;;0.80;;
7156;SDS011;3620;49.862;8.758;2022-10-23T12:32:14;0.80;;;0.80;;
7156;SDS011;3620;49.862;8.758;2022-10-23T12:34:52;0.70;;;0.70;;
7156;SDS011;3620;49.862;8.758;2022-10-23T12:37:40;0.77;;;0.77;;
7156;SDS011;3620;49.862;8.758;2022-10-23T12:40:21;0.80;;;0.80;;
7156;SDS011;3620;49.862;8.758;2022-10-23T12:42:54;0.80;;;0.80;;
7156;SDS011;3620;49.862;8.758;2022-10-23T12:45:22;0.80;;;0.80;;
7156;SDS011;3620;49.862;8.758;2022-10-23T12:47:51;0.80;;;0.80;;
7156;SDS011;3620;49.862;8.758;2022-10-23T12:50:19;0.73;;;0.73;;
7156;SDS011;3620;49.862;8.758;2022-10-23T12:52:50;0.80;;;0.80;;
7156;SDS011;3620;49.862;8.758;2022-10-23T12:55:18;0.80;;;0.80;;
7156;SDS011;3620;49.862;8.758;2022-10-23T12:57:47;0.80;;;0.80;;
7156;SDS011;3620;49.862;8.758;2022-10-23T13:00:15;0.80;;;0.80;;
7156;SDS011;3620;49.862;8.758;2022-10-23T13:02:43;0.80;;;0.80;;
7156;SDS011;3620;49.862;8.758;2022-10-23T13:05:18;0.80;;;0.80;;
7156;SDS011;3620;49.862;8.758;2022-10-23T13:07:46;0.70;;;0.70;;
7156;SDS011;3620;49.862;8.758;2022-10-23T13:10:15;0.80;;;0.80;;
7156;SDS011;3620;49.862;8.758;2022-10-23T13:12:46;0.80;;;0.80;;
7156;SDS011;3620;49.862;8.758;2022-10-23T13:15:20;0.70;;;0.70;;
7156;SDS011;3620;49.862;8.758;2022-10-23T13:17:58;0.73;;;0.73;;
7156;SDS011;3620;49.862;8.758;2022-10-23T13:20:27;0.70;;;0.70;;
7156;SDS011;3620;49.862;8.758;2022-10-23T13:22:56;0.73;;;0.73;;
7156;SDS011;3620;49.862;8.758;2022-10-23T13:25:26;0.70;;;0.70;;
7156;SDS011;3620;49.862;8.758;2022-10-23T13:28:14;0.70;;;0.70;;
7156;SDS011;3620;49.862;8.758;2022-10-23T13:30:56;0.70;;;0.70;;
7156;SDS011;3620;49.862;8.758;2022-10-23T13:33:30;0.70;;;0.70;;
7156;SDS011;3620;49.862;8.758;2022-10-23T13:35:59;0.70;;;0.70;;
7156;SDS011;3620;49.862;8.758;2022-10-23T13:38:29;0.70;;;0.70;;
7156;SDS011;3620;49.862;8.758;2022-10-23T13:40:57;0.70;;;0.70;;
7156;SDS011;3620;49.862;8.758;2022-10-23T13:43:26;0.80;;;0.80;;
7156;SDS011;3620;49.862;8.758;2022-10-23T13:45:54;0.60;;;0.60;;
7156;SDS011;3620;49.862;8.758;2022-10-23T13:48:21;0.73;;;0.73;;
7156;SDS011;3620;49.862;8.758;2022-10-23T13:50:48;0.77;;;0.77;;
7156;SDS011;3620;49.862;8.758;2022-10-23T13:53:15;0.70;;;0.70;;
7156;SDS011;3620;49.862;8.758;2022-10-23T13:55:42;0.70;;;0.70;;
7156;SDS011;3620;49.862;8.758;2022-10-23T13:58:14;0.70;;;0.70;;
7156;SDS011;3620;49.862;8.758;2022-10-23T14:00:42;0.67;;;0.67;;
7156;SDS011;3620;49.862;8.758;2022-10-23T14:03:11;0.70;;;0.70;;
7156;SDS011;3620;49.862;8.758;2022-10-23T14:05:38;0.60;;;0.60;;
7156;SDS011;3620;49.862;8.758;2022-10-23T14:08:05;0.70;;;0.70;;
7156;SDS011;3620;49.862;8.758;2022-10-23T14:10:32;0.70;;;0.70;;
7156;SDS011;3620;49.862;8.758;2022-10-23T14:12:59;0.70;;;0.70;;
7156;SDS011;3620;49.862;8.758;2022-10-23T14:15:25;0.60;;;0.60;;
7156;SDS011;3620;49.862;8.758;2022-10-23T14:17:53;0.63;;;0.63;;
7156;SDS011;3620;49.862;8.758;2022-10-23T14:20:20;0.50;;;0.50;;
7156;SDS011;3620;49.862;8.758;2022-10-23T14:22:47;0.70;;;0.70;;
7156;SDS011;3620;49.862;8.758;2022-10-23T14:25:13;0.70;;;0.70;;
7156;SDS011;3620;49.862;8.758;2022-10-23T14:27:40;0.70;;;0.70;;
7156;SDS011;3620;49.862;8.758;2022-10-23T14:30:07;0.60;;;0.60;;
7156;SDS011;3620;49.862;8.758;2022-10-23T14:32:35;0.70;;;0.70;;
7156;SDS011;3620;49.862;8.758;2022-10-23T14:35:03;0.70;;;0.70;;
7156;SDS011;3620;49.862;8.758;2022-10-23T14:37:31;0.70;;;0.70;;
7156;SDS011;3620;49.862;8.758;2022-10-23T14:39:58;0.80;;;0.80;;
7156;SDS011;3620;49.862;8.758;2022-10-23T14:42:25;0.70;;;0.70;;
7156;SDS011;3620;49.862;8.758;2022-10-23T14:44:58;0.80;;;0.80;;
7156;SDS011;3620;49.862;8.758;2022-10-23T14:47:24;0.80;;;0.80;;
7156;SDS011;3620;49.862;8.758;2022-10-23T14:49:51;0.80;;;0.80;;
7156;SDS011;3620;49.862;8.758;2022-10-23T14:52:19;0.80;;;0.80;;
7156;SDS011;3620;49.862;8.758;2022-10-23T14:54:46;0.70;;;0.70;;
7156;SDS011;3620;49.862;8.758;2022-10-23T14:57:13;0.70;;;0.70;;
7156;SDS011;3620;49.862;8.758;2022-10-23T14:59:41;0.80;;;0.80;;
7156;SDS011;3620;49.862;8.758;2022-10-23T15:02:09;0.70;;;0.70;;
7156;SDS011;3620;49.862;8.758;2022-10-23T15:04:36;0.70;;;0.70;;
7156;SDS011;3620;49.862;8.758;2022-10-23T15:07:03;0.70;;;0.70;;
7156;SDS011;3620;49.862;8.758;2022-10-23T15:09:32;0.80;;;0.80;;
7156;SDS011;3620;49.862;8.758;2022-10-23T15:12:00;0.80;;;0.80;;
7156;SDS011;3620;49.862;8.758;2022-10-23T15:14:28;0.60;;;0.60;;
7156;SDS011;3620;49.862;8.758;2022-10-23T15:16:54;0.70;;;0.70;;
7156;SDS011;3620;49.862;8.758;2022-10-23T15:19:21;0.60;;;0.60;;
7156;SDS011;3620;49.862;8.758;2022-10-23T15:21:48;0.77;;;0.77;;
7156;SDS011;3620;49.862;8.758;2022-10-23T15:24:15;0.73;;;0.73;;
7156;SDS011;3620;49.862;8.758;2022-10-23T15:26:44;0.70;;;0.70;;
7156;SDS011;3620;49.862;8.758;2022-10-23T15:29:11;0.70;;;0.70;;
7156;SDS011;3620;49.862;8.758;2022-10-23T15:31:39;0.80;;;0.80;;
7156;SDS011;3620;49.862;8.758;2022-10-23T15:34:11;0.80;;;0.80;;
7156;SDS011;3620;49.862;8.758;2022-10-23T15:36:39;0.80;;;0.80;;
7156;SDS011;3620;49.862;8.758;2022-10-23T15:39:09;0.70;;;0.70;;
7156;SDS011;3620;49.862;8.758;2022-10-23T15:41:37;0.70;;;0.70;;
7156;SDS011;3620;49.862;8.758;2022-10-23T15:44:06;0.77;;;0.77;;
7156;SDS011;3620;49.862;8.758;2022-10-23T15:46:35;0.80;;;0.80;;